sensor_id;sensor_type;location;lat;lon;timestamp;P1;durP1;ratioP1;P2;durP2;ratioP2
74898;SDS011;63458;48.210;16.338;2023-05-01T00:00:07;10.48;;;5.43;;
74898;SDS011;63458;48.210;16.338;2023-05-01T00:02:33;9.52;;;5.22;;
74898;SDS011;63458;48.210;16.338;2023-05-01T00:05:00;10.90;;;5.90;;
74898;SDS011;63458;48.210;16.338;2023-05-01T00:07:26;8.98;;;5.50;;
74898;SDS011;63458;48.210;16.338;2023-05-01T00:09:58;8.85;;;5.13;;
74898;SDS011;63458;48.210;16.338;2023-05-01T00:12:24;7.80;;;4.72;;
74898;SDS011;63458;48.210;16.338;2023-05-01T00:14:50;9.93;;;5.22;;
74898;SDS011;63458;48.210;16.338;2023-05-01T00:17:16;7.75;;;4.53;;
74898;SDS011;63458;48.210;16.338;2023-05-01T00:19:42;9.93;;;5.10;;
74898;SDS011;63458;48.210;16.338;2023-05-01T00:22:08;9.50;;;4.85;;
74898;SDS011;63458;48.210;16.338;2023-05-01T00:24:34;9.23;;;4.72;;
74898;SDS011;63458;48.210;16.338;2023-05-01T00:27:01;9.57;;;5.20;;
74898;SDS011;63458;48.210;16.338;2023-05-01T00:29:27;9.32;;;5.20;;
74898;SDS011;63458;48.210;16.338;2023-05-01T00:31:53;8.30;;;4.95;;
74898;SDS011;63458;48.210;16.338;2023-05-01T00:34:20;10.73;;;5.70;;
74898;SDS011;63458;48.210;16.338;2023-05-01T00:36:46;9.70;;;5.22;;
74898;SDS011;63458;48.210;16.338;2023-05-01T00:39:12;8.40;;;4.32;;
74898;SDS011;63458;48.210;16.338;2023-05-01T00:41:38;9.02;;;4.75;;
74898;SDS011;63458;48.210;16.338;2023-05-01T00:44:04;8.40;;;4.68;;
74898;SDS011;63458;48.210;16.338;2023-05-01T00:46:30;9.50;;;4.90;;
74898;SDS011;63458;48.210;16.338;2023-05-01T00:48:57;7.22;;;4.53;;
74898;SDS011;63458;48.210;16.338;2023-05-01T00:51:23;7.63;;;4.30;;
74898;SDS011;63458;48.210;16.338;2023-05-01T00:53:49;7.97;;;4.53;;
74898;SDS011;63458;48.210;16.338;2023-05-01T00:56:15;9.38;;;5.00;;
74898;SDS011;63458;48.210;16.338;2023-05-01T00:58:41;9.45;;;4.93;;
74898;SDS011;63458;48.210;16.338;2023-05-01T01:01:08;7.53;;;4.35;;
74898;SDS011;63458;48.210;16.338;2023-05-01T01:03:34;9.13;;;4.93;;
74898;SDS011;63458;48.210;16.338;2023-05-01T01:06:44;9.25;;;4.93;;
74898;SDS011;63458;48.210;16.338;2023-05-01T01:11:49;7.85;;;4.20;;
74898;SDS011;63458;48.210;16.338;2023-05-01T01:14:18;8.85;;;4.43;;
74898;SDS011;63458;48.210;16.338;2023-05-01T01:16:47;7.72;;;4.15;;
74898;SDS011;63458;48.210;16.338;2023-05-01T01:21:46;8.55;;;3.97;;
74898;SDS011;63458;48.210;16.338;2023-05-01T01:29:50;8.35;;;5.00;;
74898;SDS011;63458;48.210;16.338;2023-05-01T01:35:07;9.20;;;4.97;;
74898;SDS011;63458;48.210;16.338;2023-05-01T01:37:39;9.85;;;4.45;;
74898;SDS011;63458;48.210;16.338;2023-05-01T01:40:12;8.57;;;5.18;;
74898;SDS011;63458;48.210;16.338;2023-05-01T01:42:44;8.63;;;4.38;;
74898;SDS011;63458;48.210;16.338;2023-05-01T01:45:11;8.45;;;4.70;;
74898;SDS011;63458;48.210;16.338;2023-05-01T01:47:40;7.10;;;4.05;;
74898;SDS011;63458;48.210;16.338;2023-05-01T01:50:06;9.30;;;5.00;;
74898;SDS011;63458;48.210;16.338;2023-05-01T01:52:34;8.23;;;4.68;;
74898;SDS011;63458;48.210;16.338;2023-05-01T01:55:07;11.65;;;4.60;;
74898;SDS011;63458;48.210;16.338;2023-05-01T01:57:35;8.30;;;5.32;;
74898;SDS011;63458;48.210;16.338;2023-05-01T02:00:03;11.00;;;4.63;;
74898;SDS011;63458;48.210;16.338;2023-05-01T02:02:33;9.73;;;5.90;;
74898;SDS011;63458;48.210;16.338;2023-05-01T02:05:01;8.15;;;4.82;;
74898;SDS011;63458;48.210;16.338;2023-05-01T02:07:28;9.95;;;4.70;;
74898;SDS011;63458;48.210;16.338;2023-05-01T02:09:55;10.38;;;6.50;;
74898;SDS011;63458;48.210;16.338;2023-05-01T02:12:21;8.40;;;4.68;;
74898;SDS011;63458;48.210;16.338;2023-05-01T02:14:48;8.45;;;4.68;;
74898;SDS011;63458;48.210;16.338;2023-05-01T02:17:15;8.70;;;4.47;;
74898;SDS011;63458;48.210;16.338;2023-05-01T02:19:42;9.48;;;5.75;;
74898;SDS011;63458;48.210;16.338;2023-05-01T02:22:09;8.73;;;5.05;;
74898;SDS011;63458;48.210;16.338;2023-05-01T02:24:36;9.05;;;5.60;;
74898;SDS011;63458;48.210;16.338;2023-05-01T02:27:05;8.40;;;5.03;;
74898;SDS011;63458;48.210;16.338;2023-05-01T02:29:33;10.57;;;4.70;;
74898;SDS011;63458;48.210;16.338;2023-05-01T02:31:59;8.60;;;5.28;;
74898;SDS011;63458;48.210;16.338;2023-05-01T02:34:25;9.70;;;5.10;;
74898;SDS011;63458;48.210;16.338;2023-05-01T02:36:52;8.20;;;4.43;;
74898;SDS011;63458;48.210;16.338;2023-05-01T02:39:18;9.25;;;4.40;;
74898;SDS011;63458;48.210;16.338;2023-05-01T02:41:44;8.73;;;5.53;;
74898;SDS011;63458;48.210;16.338;2023-05-01T02:44:10;8.68;;;5.20;;
74898;SDS011;63458;48.210;16.338;2023-05-01T02:46:37;9.05;;;5.75;;
74898;SDS011;63458;48.210;16.338;2023-05-01T02:49:03;8.75;;;5.05;;
74898;SDS011;63458;48.210;16.338;2023-05-01T02:51:30;10.32;;;5.22;;
74898;SDS011;63458;48.210;16.338;2023-05-01T02:53:57;8.68;;;5.55;;
74898;SDS011;63458;48.210;16.338;2023-05-01T02:56:26;9.82;;;5.20;;
74898;SDS011;63458;48.210;16.338;2023-05-01T02:58:53;9.88;;;5.50;;
74898;SDS011;63458;48.210;16.338;2023-05-01T03:01:19;9.13;;;5.47;;
74898;SDS011;63458;48.210;16.338;2023-05-01T03:03:46;9.27;;;5.88;;
74898;SDS011;63458;48.210;16.338;2023-05-01T03:06:12;10.43;;;5.20;;
74898;SDS011;63458;48.210;16.338;2023-05-01T03:08:38;9.68;;;5.35;;
74898;SDS011;63458;48.210;16.338;2023-05-01T03:11:07;9.27;;;5.63;;
74898;SDS011;63458;48.210;16.338;2023-05-01T03:13:34;10.27;;;4.93;;
74898;SDS011;63458;48.210;16.338;2023-05-01T03:16:00;8.23;;;5.13;;
74898;SDS011;63458;48.210;16.338;2023-05-01T03:18:28;9.88;;;5.18;;
74898;SDS011;63458;48.210;16.338;2023-05-01T03:20:54;11.20;;;5.88;;
74898;SDS011;63458;48.210;16.338;2023-05-01T03:23:23;10.35;;;5.72;;
74898;SDS011;63458;48.210;16.338;2023-05-01T03:25:49;8.18;;;4.65;;
74898;SDS011;63458;48.210;16.338;2023-05-01T03:28:15;9.48;;;5.97;;
74898;SDS011;63458;48.210;16.338;2023-05-01T03:30:42;9.20;;;5.40;;
74898;SDS011;63458;48.210;16.338;2023-05-01T03:33:09;9.45;;;5.50;;
74898;SDS011;63458;48.210;16.338;2023-05-01T03:35:35;9.23;;;5.47;;
74898;SDS011;63458;48.210;16.338;2023-05-01T03:38:01;9.52;;;5.65;;
74898;SDS011;63458;48.210;16.338;2023-05-01T03:40:27;8.75;;;5.55;;
74898;SDS011;63458;48.210;16.338;2023-05-01T03:42:53;9.73;;;5.35;;
74898;SDS011;63458;48.210;16.338;2023-05-01T03:45:19;10.25;;;5.60;;
74898;SDS011;63458;48.210;16.338;2023-05-01T03:47:45;8.77;;;4.95;;
74898;SDS011;63458;48.210;16.338;2023-05-01T03:50:11;9.45;;;5.50;;
74898;SDS011;63458;48.210;16.338;2023-05-01T03:52:38;10.10;;;4.75;;
74898;SDS011;63458;48.210;16.338;2023-05-01T03:55:04;9.43;;;5.80;;
74898;SDS011;63458;48.210;16.338;2023-05-01T03:57:31;9.45;;;5.28;;
74898;SDS011;63458;48.210;16.338;2023-05-01T03:59:57;10.93;;;5.85;;
74898;SDS011;63458;48.210;16.338;2023-05-01T04:02:23;10.15;;;5.13;;
74898;SDS011;63458;48.210;16.338;2023-05-01T04:04:50;9.65;;;5.65;;
74898;SDS011;63458;48.210;16.338;2023-05-01T04:07:16;9.45;;;5.15;;
74898;SDS011;63458;48.210;16.338;2023-05-01T04:09:42;12.95;;;7.00;;
74898;SDS011;63458;48.210;16.338;2023-05-01T04:12:08;10.05;;;5.60;;
74898;SDS011;63458;48.210;16.338;2023-05-01T04:14:34;13.68;;;6.07;;
74898;SDS011;63458;48.210;16.338;2023-05-01T04:17:00;10.50;;;5.57;;
74898;SDS011;63458;48.210;16.338;2023-05-01T04:19:26;9.23;;;5.47;;
74898;SDS011;63458;48.210;16.338;2023-05-01T04:21:52;9.63;;;5.20;;
74898;SDS011;63458;48.210;16.338;2023-05-01T04:24:19;8.95;;;5.57;;
74898;SDS011;63458;48.210;16.338;2023-05-01T04:26:45;8.95;;;5.40;;
74898;SDS011;63458;48.210;16.338;2023-05-01T04:29:11;8.52;;;5.13;;
74898;SDS011;63458;48.210;16.338;2023-05-01T04:31:37;8.73;;;5.03;;
74898;SDS011;63458;48.210;16.338;2023-05-01T04:34:05;9.57;;;6.07;;
74898;SDS011;63458;48.210;16.338;2023-05-01T04:36:31;10.35;;;6.00;;
74898;SDS011;63458;48.210;16.338;2023-05-01T04:38:57;10.25;;;6.00;;
74898;SDS011;63458;48.210;16.338;2023-05-01T04:41:23;10.32;;;6.35;;
74898;SDS011;63458;48.210;16.338;2023-05-01T04:43:49;9.73;;;5.85;;
74898;SDS011;63458;48.210;16.338;2023-05-01T04:46:15;9.82;;;6.13;;
74898;SDS011;63458;48.210;16.338;2023-05-01T04:48:41;10.48;;;5.85;;
74898;SDS011;63458;48.210;16.338;2023-05-01T04:51:07;10.85;;;5.97;;
74898;SDS011;63458;48.210;16.338;2023-05-01T04:53:33;9.57;;;5.03;;
74898;SDS011;63458;48.210;16.338;2023-05-01T04:55:59;10.63;;;6.43;;
74898;SDS011;63458;48.210;16.338;2023-05-01T04:58:25;10.38;;;6.20;;
74898;SDS011;63458;48.210;16.338;2023-05-01T05:00:51;8.50;;;5.50;;
74898;SDS011;63458;48.210;16.338;2023-05-01T05:03:17;9.20;;;5.53;;
74898;SDS011;63458;48.210;16.338;2023-05-01T05:05:43;9.65;;;5.15;;
74898;SDS011;63458;48.210;16.338;2023-05-01T05:08:12;8.93;;;5.30;;
74898;SDS011;63458;48.210;16.338;2023-05-01T05:10:38;9.38;;;5.70;;
74898;SDS011;63458;48.210;16.338;2023-05-01T05:13:04;11.98;;;5.72;;
74898;SDS011;63458;48.210;16.338;2023-05-01T05:15:30;11.90;;;5.78;;
74898;SDS011;63458;48.210;16.338;2023-05-01T05:17:56;10.73;;;5.53;;
74898;SDS011;63458;48.210;16.338;2023-05-01T05:20:22;7.93;;;5.30;;
74898;SDS011;63458;48.210;16.338;2023-05-01T05:22:48;11.35;;;5.90;;
74898;SDS011;63458;48.210;16.338;2023-05-01T05:25:14;9.07;;;5.15;;
74898;SDS011;63458;48.210;16.338;2023-05-01T05:27:40;9.85;;;4.85;;
74898;SDS011;63458;48.210;16.338;2023-05-01T05:30:06;8.20;;;5.32;;
74898;SDS011;63458;48.210;16.338;2023-05-01T05:32:33;10.88;;;5.47;;
74898;SDS011;63458;48.210;16.338;2023-05-01T05:34:59;12.07;;;6.65;;
74898;SDS011;63458;48.210;16.338;2023-05-01T05:37:25;12.35;;;7.72;;
74898;SDS011;63458;48.210;16.338;2023-05-01T05:39:51;10.85;;;7.13;;
74898;SDS011;63458;48.210;16.338;2023-05-01T05:42:17;9.80;;;5.22;;
74898;SDS011;63458;48.210;16.338;2023-05-01T05:44:44;10.38;;;5.97;;
74898;SDS011;63458;48.210;16.338;2023-05-01T05:47:10;9.07;;;5.07;;
74898;SDS011;63458;48.210;16.338;2023-05-01T05:49:36;10.98;;;5.43;;
74898;SDS011;63458;48.210;16.338;2023-05-01T05:52:02;10.25;;;4.97;;
74898;SDS011;63458;48.210;16.338;2023-05-01T05:54:28;9.10;;;5.18;;
74898;SDS011;63458;48.210;16.338;2023-05-01T05:56:54;10.23;;;5.60;;
74898;SDS011;63458;48.210;16.338;2023-05-01T05:59:20;9.15;;;5.15;;
74898;SDS011;63458;48.210;16.338;2023-05-01T06:01:46;19.35;;;14.00;;
74898;SDS011;63458;48.210;16.338;2023-05-01T06:04:12;17.92;;;12.65;;
74898;SDS011;63458;48.210;16.338;2023-05-01T06:06:39;13.55;;;9.85;;
74898;SDS011;63458;48.210;16.338;2023-05-01T06:09:05;15.85;;;8.95;;
74898;SDS011;63458;48.210;16.338;2023-05-01T06:11:35;15.10;;;8.05;;
74898;SDS011;63458;48.210;16.338;2023-05-01T06:14:01;29.98;;;23.25;;
74898;SDS011;63458;48.210;16.338;2023-05-01T06:16:27;28.48;;;22.50;;
74898;SDS011;63458;48.210;16.338;2023-05-01T06:18:53;43.88;;;34.50;;
74898;SDS011;63458;48.210;16.338;2023-05-01T06:21:19;46.45;;;34.38;;
74898;SDS011;63458;48.210;16.338;2023-05-01T06:23:45;59.78;;;43.17;;
74898;SDS011;63458;48.210;16.338;2023-05-01T06:26:11;57.65;;;39.63;;
74898;SDS011;63458;48.210;16.338;2023-05-01T06:28:38;59.67;;;45.30;;
74898;SDS011;63458;48.210;16.338;2023-05-01T06:31:04;55.83;;;38.28;;
74898;SDS011;63458;48.210;16.338;2023-05-01T06:33:30;27.88;;;18.63;;
74898;SDS011;63458;48.210;16.338;2023-05-01T06:35:56;21.02;;;14.85;;
74898;SDS011;63458;48.210;16.338;2023-05-01T06:38:24;28.10;;;17.88;;
74898;SDS011;63458;48.210;16.338;2023-05-01T06:40:50;22.45;;;15.43;;
74898;SDS011;63458;48.210;16.338;2023-05-01T06:43:16;13.63;;;8.32;;
74898;SDS011;63458;48.210;16.338;2023-05-01T06:45:42;13.18;;;8.80;;
74898;SDS011;63458;48.210;16.338;2023-05-01T06:48:08;11.27;;;6.78;;
74898;SDS011;63458;48.210;16.338;2023-05-01T06:50:35;12.45;;;7.35;;
74898;SDS011;63458;48.210;16.338;2023-05-01T06:53:01;9.70;;;6.60;;
74898;SDS011;63458;48.210;16.338;2023-05-01T06:55:28;11.13;;;6.00;;
74898;SDS011;63458;48.210;16.338;2023-05-01T06:57:58;10.15;;;6.15;;
74898;SDS011;63458;48.210;16.338;2023-05-01T07:00:24;11.15;;;6.45;;
74898;SDS011;63458;48.210;16.338;2023-05-01T07:02:50;10.98;;;6.00;;
74898;SDS011;63458;48.210;16.338;2023-05-01T07:05:16;10.38;;;6.38;;
74898;SDS011;63458;48.210;16.338;2023-05-01T07:07:42;9.40;;;6.00;;
74898;SDS011;63458;48.210;16.338;2023-05-01T07:10:09;11.35;;;6.43;;
74898;SDS011;63458;48.210;16.338;2023-05-01T07:12:35;12.18;;;6.40;;
74898;SDS011;63458;48.210;16.338;2023-05-01T07:15:01;10.43;;;6.47;;
74898;SDS011;63458;48.210;16.338;2023-05-01T07:17:28;11.35;;;7.43;;
74898;SDS011;63458;48.210;16.338;2023-05-01T07:19:54;10.38;;;7.00;;
74898;SDS011;63458;48.210;16.338;2023-05-01T07:22:20;11.80;;;7.05;;
74898;SDS011;63458;48.210;16.338;2023-05-01T07:24:46;10.07;;;7.05;;
74898;SDS011;63458;48.210;16.338;2023-05-01T07:27:12;11.10;;;6.90;;
74898;SDS011;63458;48.210;16.338;2023-05-01T07:29:39;10.05;;;7.25;;
74898;SDS011;63458;48.210;16.338;2023-05-01T07:32:05;11.30;;;6.53;;
74898;SDS011;63458;48.210;16.338;2023-05-01T07:34:31;9.48;;;6.55;;
74898;SDS011;63458;48.210;16.338;2023-05-01T07:36:57;10.13;;;6.70;;
74898;SDS011;63458;48.210;16.338;2023-05-01T07:39:23;11.38;;;6.57;;
74898;SDS011;63458;48.210;16.338;2023-05-01T07:41:50;11.75;;;6.75;;
74898;SDS011;63458;48.210;16.338;2023-05-01T07:44:17;9.73;;;6.93;;
74898;SDS011;63458;48.210;16.338;2023-05-01T07:46:43;10.27;;;6.60;;
74898;SDS011;63458;48.210;16.338;2023-05-01T07:49:09;10.82;;;7.15;;
74898;SDS011;63458;48.210;16.338;2023-05-01T07:51:35;11.50;;;5.80;;
74898;SDS011;63458;48.210;16.338;2023-05-01T07:54:01;10.35;;;7.07;;
74898;SDS011;63458;48.210;16.338;2023-05-01T07:56:28;10.15;;;7.20;;
74898;SDS011;63458;48.210;16.338;2023-05-01T07:58:55;11.18;;;7.50;;
74898;SDS011;63458;48.210;16.338;2023-05-01T08:01:21;11.65;;;6.88;;
74898;SDS011;63458;48.210;16.338;2023-05-01T08:03:47;11.40;;;7.30;;
74898;SDS011;63458;48.210;16.338;2023-05-01T08:06:13;10.23;;;7.20;;
74898;SDS011;63458;48.210;16.338;2023-05-01T08:08:39;8.95;;;6.32;;
74898;SDS011;63458;48.210;16.338;2023-05-01T08:11:05;10.38;;;6.53;;
74898;SDS011;63458;48.210;16.338;2023-05-01T08:13:31;9.75;;;6.50;;
74898;SDS011;63458;48.210;16.338;2023-05-01T08:16:01;9.80;;;6.72;;
74898;SDS011;63458;48.210;16.338;2023-05-01T08:18:27;11.48;;;6.90;;
74898;SDS011;63458;48.210;16.338;2023-05-01T08:20:53;10.43;;;6.88;;
74898;SDS011;63458;48.210;16.338;2023-05-01T08:23:19;11.20;;;7.43;;
74898;SDS011;63458;48.210;16.338;2023-05-01T08:25:46;10.50;;;7.20;;
74898;SDS011;63458;48.210;16.338;2023-05-01T08:28:15;11.30;;;7.60;;
74898;SDS011;63458;48.210;16.338;2023-05-01T08:30:41;10.27;;;7.40;;
74898;SDS011;63458;48.210;16.338;2023-05-01T08:33:08;11.00;;;7.47;;
74898;SDS011;63458;48.210;16.338;2023-05-01T08:35:34;11.25;;;7.70;;
74898;SDS011;63458;48.210;16.338;2023-05-01T08:38:00;10.82;;;8.18;;
74898;SDS011;63458;48.210;16.338;2023-05-01T08:40:27;12.55;;;8.48;;
74898;SDS011;63458;48.210;16.338;2023-05-01T08:42:56;11.45;;;7.40;;
74898;SDS011;63458;48.210;16.338;2023-05-01T08:45:23;9.57;;;6.95;;
74898;SDS011;63458;48.210;16.338;2023-05-01T08:47:49;10.20;;;7.72;;
74898;SDS011;63458;48.210;16.338;2023-05-01T08:50:17;12.98;;;8.35;;
74898;SDS011;63458;48.210;16.338;2023-05-01T08:52:44;12.13;;;7.95;;
74898;SDS011;63458;48.210;16.338;2023-05-01T08:55:11;10.50;;;7.55;;
74898;SDS011;63458;48.210;16.338;2023-05-01T08:57:37;10.27;;;7.30;;
74898;SDS011;63458;48.210;16.338;2023-05-01T09:00:04;13.27;;;7.97;;
74898;SDS011;63458;48.210;16.338;2023-05-01T09:02:32;11.15;;;7.95;;
74898;SDS011;63458;48.210;16.338;2023-05-01T09:04:59;9.63;;;7.38;;
74898;SDS011;63458;48.210;16.338;2023-05-01T09:07:28;11.75;;;7.30;;
74898;SDS011;63458;48.210;16.338;2023-05-01T09:09:54;10.23;;;7.25;;
74898;SDS011;63458;48.210;16.338;2023-05-01T09:12:24;9.82;;;6.38;;
74898;SDS011;63458;48.210;16.338;2023-05-01T09:14:51;11.40;;;7.07;;
74898;SDS011;63458;48.210;16.338;2023-05-01T09:17:17;9.75;;;5.78;;
74898;SDS011;63458;48.210;16.338;2023-05-01T09:19:43;11.20;;;7.60;;
74898;SDS011;63458;48.210;16.338;2023-05-01T09:22:09;12.77;;;8.55;;
74898;SDS011;63458;48.210;16.338;2023-05-01T09:24:35;8.23;;;5.55;;
74898;SDS011;63458;48.210;16.338;2023-05-01T09:27:01;8.65;;;5.70;;
74898;SDS011;63458;48.210;16.338;2023-05-01T09:29:35;9.23;;;6.13;;
74898;SDS011;63458;48.210;16.338;2023-05-01T09:32:23;8.15;;;5.25;;
74898;SDS011;63458;48.210;16.338;2023-05-01T09:34:49;8.82;;;5.60;;
74898;SDS011;63458;48.210;16.338;2023-05-01T09:40:10;9.38;;;5.47;;
74898;SDS011;63458;48.210;16.338;2023-05-01T09:45:04;11.10;;;6.07;;
74898;SDS011;63458;48.210;16.338;2023-05-01T09:47:30;8.40;;;4.70;;
74898;SDS011;63458;48.210;16.338;2023-05-01T09:49:58;8.07;;;5.22;;
74898;SDS011;63458;48.210;16.338;2023-05-01T09:52:28;9.70;;;5.03;;
74898;SDS011;63458;48.210;16.338;2023-05-01T09:57:37;7.95;;;5.65;;
74898;SDS011;63458;48.210;16.338;2023-05-01T10:00:04;9.73;;;5.40;;
74898;SDS011;63458;48.210;16.338;2023-05-01T10:02:32;9.85;;;5.50;;
74898;SDS011;63458;48.210;16.338;2023-05-01T10:04:58;9.07;;;5.40;;
74898;SDS011;63458;48.210;16.338;2023-05-01T10:07:24;8.68;;;5.07;;
74898;SDS011;63458;48.210;16.338;2023-05-01T10:09:51;10.77;;;6.10;;
74898;SDS011;63458;48.210;16.338;2023-05-01T10:12:25;6.75;;;4.53;;
74898;SDS011;63458;48.210;16.338;2023-05-01T10:14:52;10.25;;;5.25;;
74898;SDS011;63458;48.210;16.338;2023-05-01T10:17:18;8.75;;;5.82;;
74898;SDS011;63458;48.210;16.338;2023-05-01T10:19:44;9.00;;;5.72;;
74898;SDS011;63458;48.210;16.338;2023-05-01T10:22:14;8.73;;;5.40;;
74898;SDS011;63458;48.210;16.338;2023-05-01T10:24:41;8.75;;;5.97;;
74898;SDS011;63458;48.210;16.338;2023-05-01T10:27:09;7.28;;;4.80;;
74898;SDS011;63458;48.210;16.338;2023-05-01T10:29:36;8.45;;;5.32;;
74898;SDS011;63458;48.210;16.338;2023-05-01T10:32:02;9.25;;;6.28;;
74898;SDS011;63458;48.210;16.338;2023-05-01T10:34:31;8.50;;;5.63;;
74898;SDS011;63458;48.210;16.338;2023-05-01T10:37:03;8.02;;;5.38;;
74898;SDS011;63458;48.210;16.338;2023-05-01T10:39:37;7.63;;;5.10;;
74898;SDS011;63458;48.210;16.338;2023-05-01T10:42:04;8.30;;;5.15;;
74898;SDS011;63458;48.210;16.338;2023-05-01T10:44:30;8.75;;;5.45;;
74898;SDS011;63458;48.210;16.338;2023-05-01T10:46:58;7.68;;;5.03;;
74898;SDS011;63458;48.210;16.338;2023-05-01T10:49:24;9.50;;;6.00;;
74898;SDS011;63458;48.210;16.338;2023-05-01T10:52:10;7.47;;;5.05;;
74898;SDS011;63458;48.210;16.338;2023-05-01T10:54:37;9.55;;;5.53;;
74898;SDS011;63458;48.210;16.338;2023-05-01T10:57:04;8.95;;;5.60;;
74898;SDS011;63458;48.210;16.338;2023-05-01T11:02:21;13.00;;;6.30;;
74898;SDS011;63458;48.210;16.338;2023-05-01T11:04:48;8.73;;;5.78;;
74898;SDS011;63458;48.210;16.338;2023-05-01T11:07:15;10.73;;;5.38;;
74898;SDS011;63458;48.210;16.338;2023-05-01T11:12:12;9.05;;;5.10;;
74898;SDS011;63458;48.210;16.338;2023-05-01T11:22:37;7.25;;;4.35;;
74898;SDS011;63458;48.210;16.338;2023-05-01T11:25:25;7.10;;;4.38;;
74898;SDS011;63458;48.210;16.338;2023-05-01T11:28:01;6.78;;;3.92;;
74898;SDS011;63458;48.210;16.338;2023-05-01T11:30:37;7.55;;;4.30;;
74898;SDS011;63458;48.210;16.338;2023-05-01T11:33:03;7.43;;;4.25;;
74898;SDS011;63458;48.210;16.338;2023-05-01T11:35:30;7.50;;;4.45;;
74898;SDS011;63458;48.210;16.338;2023-05-01T11:37:56;10.77;;;4.88;;
74898;SDS011;63458;48.210;16.338;2023-05-01T11:42:49;6.95;;;4.18;;
74898;SDS011;63458;48.210;16.338;2023-05-01T11:45:15;8.45;;;4.53;;
74898;SDS011;63458;48.210;16.338;2023-05-01T11:47:41;8.63;;;4.18;;
74898;SDS011;63458;48.210;16.338;2023-05-01T11:50:08;6.50;;;3.63;;
74898;SDS011;63458;48.210;16.338;2023-05-01T11:52:44;7.57;;;4.10;;
74898;SDS011;63458;48.210;16.338;2023-05-01T11:55:10;7.93;;;4.10;;
74898;SDS011;63458;48.210;16.338;2023-05-01T11:57:43;7.25;;;3.58;;
74898;SDS011;63458;48.210;16.338;2023-05-01T12:00:10;6.53;;;3.85;;
74898;SDS011;63458;48.210;16.338;2023-05-01T12:02:37;7.55;;;3.40;;
74898;SDS011;63458;48.210;16.338;2023-05-01T12:05:15;6.13;;;3.90;;
74898;SDS011;63458;48.210;16.338;2023-05-01T12:07:42;7.80;;;4.28;;
74898;SDS011;63458;48.210;16.338;2023-05-01T12:10:08;6.38;;;4.07;;
74898;SDS011;63458;48.210;16.338;2023-05-01T12:12:34;6.50;;;3.63;;
74898;SDS011;63458;48.210;16.338;2023-05-01T12:15:01;7.47;;;4.00;;
74898;SDS011;63458;48.210;16.338;2023-05-01T12:17:27;8.10;;;3.97;;
74898;SDS011;63458;48.210;16.338;2023-05-01T12:19:53;6.15;;;4.07;;
74898;SDS011;63458;48.210;16.338;2023-05-01T12:22:19;8.32;;;4.65;;
74898;SDS011;63458;48.210;16.338;2023-05-01T12:24:50;7.75;;;3.55;;
74898;SDS011;63458;48.210;16.338;2023-05-01T12:27:19;7.07;;;3.80;;
74898;SDS011;63458;48.210;16.338;2023-05-01T12:29:45;6.57;;;3.70;;
74898;SDS011;63458;48.210;16.338;2023-05-01T12:32:13;6.20;;;4.43;;
74898;SDS011;63458;48.210;16.338;2023-05-01T12:34:39;6.00;;;3.90;;
74898;SDS011;63458;48.210;16.338;2023-05-01T12:37:06;7.45;;;4.03;;
74898;SDS011;63458;48.210;16.338;2023-05-01T12:39:38;6.97;;;4.45;;
74898;SDS011;63458;48.210;16.338;2023-05-01T12:42:12;6.40;;;3.50;;
74898;SDS011;63458;48.210;16.338;2023-05-01T12:44:38;7.88;;;3.92;;
74898;SDS011;63458;48.210;16.338;2023-05-01T12:47:05;6.75;;;4.15;;
74898;SDS011;63458;48.210;16.338;2023-05-01T12:49:32;6.53;;;3.63;;
74898;SDS011;63458;48.210;16.338;2023-05-01T12:52:01;6.85;;;3.85;;
74898;SDS011;63458;48.210;16.338;2023-05-01T12:54:28;5.68;;;3.28;;
74898;SDS011;63458;48.210;16.338;2023-05-01T12:57:10;6.20;;;3.63;;
74898;SDS011;63458;48.210;16.338;2023-05-01T12:59:38;6.40;;;3.80;;
74898;SDS011;63458;48.210;16.338;2023-05-01T13:02:05;7.82;;;4.03;;
74898;SDS011;63458;48.210;16.338;2023-05-01T13:04:32;5.95;;;3.60;;
74898;SDS011;63458;48.210;16.338;2023-05-01T13:06:59;6.80;;;3.72;;
74898;SDS011;63458;48.210;16.338;2023-05-01T13:09:26;6.78;;;3.60;;
74898;SDS011;63458;48.210;16.338;2023-05-01T13:11:58;8.10;;;4.10;;
74898;SDS011;63458;48.210;16.338;2023-05-01T13:14:38;7.40;;;4.22;;
74898;SDS011;63458;48.210;16.338;2023-05-01T13:17:06;6.88;;;3.75;;
74898;SDS011;63458;48.210;16.338;2023-05-01T13:19:32;6.15;;;3.63;;
74898;SDS011;63458;48.210;16.338;2023-05-01T13:21:58;6.57;;;3.58;;
74898;SDS011;63458;48.210;16.338;2023-05-01T13:24:37;7.90;;;4.80;;
74898;SDS011;63458;48.210;16.338;2023-05-01T13:27:04;6.55;;;3.90;;
74898;SDS011;63458;48.210;16.338;2023-05-01T13:29:30;6.35;;;3.45;;
74898;SDS011;63458;48.210;16.338;2023-05-01T13:31:56;8.20;;;4.38;;
74898;SDS011;63458;48.210;16.338;2023-05-01T13:34:28;6.50;;;3.67;;
74898;SDS011;63458;48.210;16.338;2023-05-01T13:36:54;7.55;;;3.60;;
74898;SDS011;63458;48.210;16.338;2023-05-01T13:39:21;6.25;;;3.45;;
74898;SDS011;63458;48.210;16.338;2023-05-01T13:41:47;9.75;;;5.00;;
74898;SDS011;63458;48.210;16.338;2023-05-01T13:44:13;5.85;;;3.78;;
74898;SDS011;63458;48.210;16.338;2023-05-01T13:46:40;7.35;;;3.63;;
74898;SDS011;63458;48.210;16.338;2023-05-01T13:49:07;6.03;;;3.40;;
74898;SDS011;63458;48.210;16.338;2023-05-01T13:51:33;6.82;;;3.50;;
74898;SDS011;63458;48.210;16.338;2023-05-01T13:54:02;7.68;;;3.80;;
74898;SDS011;63458;48.210;16.338;2023-05-01T13:56:28;7.25;;;3.65;;
74898;SDS011;63458;48.210;16.338;2023-05-01T13:58:58;7.85;;;4.13;;
74898;SDS011;63458;48.210;16.338;2023-05-01T14:01:24;7.88;;;3.33;;
74898;SDS011;63458;48.210;16.338;2023-05-01T14:03:52;5.80;;;3.33;;
74898;SDS011;63458;48.210;16.338;2023-05-01T14:08:44;6.53;;;3.53;;
74898;SDS011;63458;48.210;16.338;2023-05-01T14:11:11;6.10;;;3.47;;
74898;SDS011;63458;48.210;16.338;2023-05-01T14:13:39;6.25;;;3.70;;
74898;SDS011;63458;48.210;16.338;2023-05-01T14:16:06;6.18;;;3.58;;
74898;SDS011;63458;48.210;16.338;2023-05-01T14:18:40;6.50;;;3.30;;
74898;SDS011;63458;48.210;16.338;2023-05-01T14:21:08;7.00;;;3.78;;
74898;SDS011;63458;48.210;16.338;2023-05-01T14:23:35;5.85;;;3.28;;
74898;SDS011;63458;48.210;16.338;2023-05-01T14:26:01;6.72;;;3.50;;
74898;SDS011;63458;48.210;16.338;2023-05-01T14:30:54;6.38;;;3.33;;
74898;SDS011;63458;48.210;16.338;2023-05-01T14:33:20;6.60;;;3.47;;
74898;SDS011;63458;48.210;16.338;2023-05-01T14:35:47;6.30;;;3.50;;
74898;SDS011;63458;48.210;16.338;2023-05-01T14:38:14;6.25;;;3.50;;
74898;SDS011;63458;48.210;16.338;2023-05-01T14:40:40;6.57;;;3.47;;
74898;SDS011;63458;48.210;16.338;2023-05-01T14:43:07;7.65;;;3.45;;
74898;SDS011;63458;48.210;16.338;2023-05-01T14:45:39;7.18;;;4.18;;
74898;SDS011;63458;48.210;16.338;2023-05-01T14:48:10;7.25;;;3.50;;
74898;SDS011;63458;48.210;16.338;2023-05-01T14:50:40;8.00;;;3.47;;
74898;SDS011;63458;48.210;16.338;2023-05-01T14:53:06;7.10;;;3.50;;
74898;SDS011;63458;48.210;16.338;2023-05-01T14:55:32;5.63;;;3.10;;
74898;SDS011;63458;48.210;16.338;2023-05-01T14:57:59;6.15;;;3.08;;
74898;SDS011;63458;48.210;16.338;2023-05-01T15:00:26;6.55;;;3.22;;
74898;SDS011;63458;48.210;16.338;2023-05-01T15:02:56;6.18;;;3.30;;
74898;SDS011;63458;48.210;16.338;2023-05-01T15:05:22;6.00;;;3.60;;
74898;SDS011;63458;48.210;16.338;2023-05-01T15:07:50;7.80;;;3.30;;
74898;SDS011;63458;48.210;16.338;2023-05-01T15:10:16;6.43;;;3.10;;
74898;SDS011;63458;48.210;16.338;2023-05-01T15:12:42;6.65;;;3.60;;